sensor_id;sensor_type;location;lat;lon;timestamp;temperature;humidity
20672;DHT22;10495;50.922;4.760;2023-05-07T00:02:24;16.40;85.30
20672;DHT22;10495;50.922;4.760;2023-05-07T00:04:50;16.50;85.20
20672;DHT22;10495;50.922;4.760;2023-05-07T00:07:17;16.50;85.00
20672;DHT22;10495;50.922;4.760;2023-05-07T00:09:43;16.40;85.10
20672;DHT22;10495;50.922;4.760;2023-05-07T00:12:09;16.40;85.10
20672;DHT22;10495;50.922;4.760;2023-05-07T00:14:35;16.50;84.90
20672;DHT22;10495;50.922;4.760;2023-05-07T00:17:01;16.60;84.90
20672;DHT22;10495;50.922;4.760;2023-05-07T00:19:26;16.50;84.90
20672;DHT22;10495;50.922;4.760;2023-05-07T00:21:52;16.50;85.70
20672;DHT22;10495;50.922;4.760;2023-05-07T00:24:19;16.50;85.60
20672;DHT22;10495;50.922;4.760;2023-05-07T00:26:45;16.50;86.00
20672;DHT22;10495;50.922;4.760;2023-05-07T00:29:10;16.50;85.60
20672;DHT22;10495;50.922;4.760;2023-05-07T00:31:36;16.50;85.30
20672;DHT22;10495;50.922;4.760;2023-05-07T00:34:02;16.60;85.30
20672;DHT22;10495;50.922;4.760;2023-05-07T00:36:28;16.50;85.40
20672;DHT22;10495;50.922;4.760;2023-05-07T00:38:54;16.50;85.30
20672;DHT22;10495;50.922;4.760;2023-05-07T00:41:20;16.50;85.20
20672;DHT22;10495;50.922;4.760;2023-05-07T00:43:46;16.60;85.00
20672;DHT22;10495;50.922;4.760;2023-05-07T00:46:13;16.60;84.90
20672;DHT22;10495;50.922;4.760;2023-05-07T00:48:40;16.60;85.20
20672;DHT22;10495;50.922;4.760;2023-05-07T00:51:06;16.60;85.30
20672;DHT22;10495;50.922;4.760;2023-05-07T00:53:32;16.60;85.60
20672;DHT22;10495;50.922;4.760;2023-05-07T00:55:58;16.60;85.60
20672;DHT22;10495;50.922;4.760;2023-05-07T00:58:24;16.60;85.70
20672;DHT22;10495;50.922;4.760;2023-05-07T01:00:50;16.60;85.60
20672;DHT22;10495;50.922;4.760;2023-05-07T01:03:15;16.70;85.40
20672;DHT22;10495;50.922;4.760;2023-05-07T01:05:41;16.70;85.70
20672;DHT22;10495;50.922;4.760;2023-05-07T01:08:08;16.70;85.70
20672;DHT22;10495;50.922;4.760;2023-05-07T01:10:34;16.70;85.90
20672;DHT22;10495;50.922;4.760;2023-05-07T01:13:00;16.70;85.80
20672;DHT22;10495;50.922;4.760;2023-05-07T01:15:26;16.70;85.60
20672;DHT22;10495;50.922;4.760;2023-05-07T01:17:51;16.80;85.70
20672;DHT22;10495;50.922;4.760;2023-05-07T01:20:18;16.90;85.20
20672;DHT22;10495;50.922;4.760;2023-05-07T01:22:44;16.80;85.40
20672;DHT22;10495;50.922;4.760;2023-05-07T01:25:10;16.70;86.00
20672;DHT22;10495;50.922;4.760;2023-05-07T01:27:36;16.60;86.20
20672;DHT22;10495;50.922;4.760;2023-05-07T01:30:05;16.80;86.20
20672;DHT22;10495;50.922;4.760;2023-05-07T01:32:45;16.70;86.10
20672;DHT22;10495;50.922;4.760;2023-05-07T01:35:18;16.60;86.40
20672;DHT22;10495;50.922;4.760;2023-05-07T01:37:44;16.60;86.90
20672;DHT22;10495;50.922;4.760;2023-05-07T01:40:11;16.50;87.20
20672;DHT22;10495;50.922;4.760;2023-05-07T01:42:37;16.50;87.30
20672;DHT22;10495;50.922;4.760;2023-05-07T01:45:03;16.50;87.20
20672;DHT22;10495;50.922;4.760;2023-05-07T01:47:30;16.50;87.00
20672;DHT22;10495;50.922;4.760;2023-05-07T01:49:56;16.60;87.60
20672;DHT22;10495;50.922;4.760;2023-05-07T01:52:22;16.60;86.80
20672;DHT22;10495;50.922;4.760;2023-05-07T01:54:48;16.60;87.30
20672;DHT22;10495;50.922;4.760;2023-05-07T01:57:13;16.60;87.20
20672;DHT22;10495;50.922;4.760;2023-05-07T01:59:39;16.60;87.40
20672;DHT22;10495;50.922;4.760;2023-05-07T02:02:04;16.60;87.60
20672;DHT22;10495;50.922;4.760;2023-05-07T02:04:30;16.60;87.20
20672;DHT22;10495;50.922;4.760;2023-05-07T02:06:56;16.60;87.10
20672;DHT22;10495;50.922;4.760;2023-05-07T02:09:21;16.50;87.40
20672;DHT22;10495;50.922;4.760;2023-05-07T02:11:48;16.50;87.70
20672;DHT22;10495;50.922;4.760;2023-05-07T02:14:13;16.50;87.70
20672;DHT22;10495;50.922;4.760;2023-05-07T02:16:39;16.50;87.80
20672;DHT22;10495;50.922;4.760;2023-05-07T02:19:05;16.50;88.00
20672;DHT22;10495;50.922;4.760;2023-05-07T02:21:30;16.50;88.20
20672;DHT22;10495;50.922;4.760;2023-05-07T02:23:56;16.40;88.70
20672;DHT22;10495;50.922;4.760;2023-05-07T02:26:22;16.40;88.60
20672;DHT22;10495;50.922;4.760;2023-05-07T02:28:47;16.50;88.40
20672;DHT22;10495;50.922;4.760;2023-05-07T02:31:13;16.50;88.50
20672;DHT22;10495;50.922;4.760;2023-05-07T02:33:39;16.50;88.40
20672;DHT22;10495;50.922;4.760;2023-05-07T02:36:11;16.60;88.40
20672;DHT22;10495;50.922;4.760;2023-05-07T02:38:37;16.50;88.70
20672;DHT22;10495;50.922;4.760;2023-05-07T02:41:03;16.50;89.00
20672;DHT22;10495;50.922;4.760;2023-05-07T02:43:29;16.40;89.00
20672;DHT22;10495;50.922;4.760;2023-05-07T02:46:08;16.50;88.70
20672;DHT22;10495;50.922;4.760;2023-05-07T02:48:35;16.60;88.40
20672;DHT22;10495;50.922;4.760;2023-05-07T02:51:01;16.80;88.10
20672;DHT22;10495;50.922;4.760;2023-05-07T02:53:27;16.90;87.80
20672;DHT22;10495;50.922;4.760;2023-05-07T02:55:54;17.10;87.30
20672;DHT22;10495;50.922;4.760;2023-05-07T02:58:19;16.80;87.80
20672;DHT22;10495;50.922;4.760;2023-05-07T03:00:45;16.70;88.60
20672;DHT22;10495;50.922;4.760;2023-05-07T03:03:11;16.70;88.60
20672;DHT22;10495;50.922;4.760;2023-05-07T03:05:37;16.70;88.70
20672;DHT22;10495;50.922;4.760;2023-05-07T03:08:02;16.50;89.40
20672;DHT22;10495;50.922;4.760;2023-05-07T03:10:29;16.30;90.10
20672;DHT22;10495;50.922;4.760;2023-05-07T03:12:55;16.30;90.00
20672;DHT22;10495;50.922;4.760;2023-05-07T03:15:21;16.30;90.00
20672;DHT22;10495;50.922;4.760;2023-05-07T03:17:50;16.20;90.30
20672;DHT22;10495;50.922;4.760;2023-05-07T03:20:15;16.10;90.40
20672;DHT22;10495;50.922;4.760;2023-05-07T03:22:41;16.10;90.50
20672;DHT22;10495;50.922;4.760;2023-05-07T03:25:08;16.10;90.40
20672;DHT22;10495;50.922;4.760;2023-05-07T03:27:34;16.10;90.40
20672;DHT22;10495;50.922;4.760;2023-05-07T03:30:00;16.20;90.30
20672;DHT22;10495;50.922;4.760;2023-05-07T03:32:26;16.30;90.10
20672;DHT22;10495;50.922;4.760;2023-05-07T03:34:51;16.40;90.00
20672;DHT22;10495;50.922;4.760;2023-05-07T03:37:17;16.40;90.20
20672;DHT22;10495;50.922;4.760;2023-05-07T03:39:43;16.40;90.20
20672;DHT22;10495;50.922;4.760;2023-05-07T03:42:09;16.40;90.10
20672;DHT22;10495;50.922;4.760;2023-05-07T03:44:34;16.40;90.10
20672;DHT22;10495;50.922;4.760;2023-05-07T03:47:02;16.50;90.00
20672;DHT22;10495;50.922;4.760;2023-05-07T03:49:27;16.50;90.00
20672;DHT22;10495;50.922;4.760;2023-05-07T03:51:53;16.50;89.90
20672;DHT22;10495;50.922;4.760;2023-05-07T03:54:19;16.50;89.80
20672;DHT22;10495;50.922;4.760;2023-05-07T03:56:44;16.50;89.60
20672;DHT22;10495;50.922;4.760;2023-05-07T03:59:10;16.50;89.70
20672;DHT22;10495;50.922;4.760;2023-05-07T04:01:36;16.50;89.70
20672;DHT22;10495;50.922;4.760;2023-05-07T04:04:01;16.50;89.70
20672;DHT22;10495;50.922;4.760;2023-05-07T04:06:28;16.50;89.60
20672;DHT22;10495;50.922;4.760;2023-05-07T04:08:54;16.50;89.50
20672;DHT22;10495;50.922;4.760;2023-05-07T04:11:19;16.50;89.70
20672;DHT22;10495;50.922;4.760;2023-05-07T04:13:45;16.50;89.70
20672;DHT22;10495;50.922;4.760;2023-05-07T04:16:11;16.40;89.60
20672;DHT22;10495;50.922;4.760;2023-05-07T04:18:37;16.50;89.70
20672;DHT22;10495;50.922;4.760;2023-05-07T04:21:02;16.50;89.50
20672;DHT22;10495;50.922;4.760;2023-05-07T04:23:28;16.50;89.50
20672;DHT22;10495;50.922;4.760;2023-05-07T04:25:53;16.50;89.50
20672;DHT22;10495;50.922;4.760;2023-05-07T04:28:20;16.60;89.20
20672;DHT22;10495;50.922;4.760;2023-05-07T04:30:45;16.60;89.20
20672;DHT22;10495;50.922;4.760;2023-05-07T04:33:11;16.50;89.60
20672;DHT22;10495;50.922;4.760;2023-05-07T04:35:37;16.50;89.70
20672;DHT22;10495;50.922;4.760;2023-05-07T04:38:03;16.40;89.60
20672;DHT22;10495;50.922;4.760;2023-05-07T04:40:29;16.50;89.70
20672;DHT22;10495;50.922;4.760;2023-05-07T04:42:55;16.50;89.50
20672;DHT22;10495;50.922;4.760;2023-05-07T04:45:21;16.50;89.60
20672;DHT22;10495;50.922;4.760;2023-05-07T04:47:46;16.50;89.50
20672;DHT22;10495;50.922;4.760;2023-05-07T04:50:12;16.50;89.40
20672;DHT22;10495;50.922;4.760;2023-05-07T04:52:37;16.60;89.20
20672;DHT22;10495;50.922;4.760;2023-05-07T04:55:03;16.60;89.40
20672;DHT22;10495;50.922;4.760;2023-05-07T04:57:29;16.70;88.60
20672;DHT22;10495;50.922;4.760;2023-05-07T04:59:55;16.60;89.00
20672;DHT22;10495;50.922;4.760;2023-05-07T05:02:21;16.70;89.10
20672;DHT22;10495;50.922;4.760;2023-05-07T05:04:46;16.60;89.10
20672;DHT22;10495;50.922;4.760;2023-05-07T05:07:12;16.50;89.90
20672;DHT22;10495;50.922;4.760;2023-05-07T05:09:37;16.40;90.10
20672;DHT22;10495;50.922;4.760;2023-05-07T05:12:03;16.50;90.20
20672;DHT22;10495;50.922;4.760;2023-05-07T05:14:29;16.50;90.20
20672;DHT22;10495;50.922;4.760;2023-05-07T05:16:55;16.70;90.00
20672;DHT22;10495;50.922;4.760;2023-05-07T05:19:20;16.70;89.80
20672;DHT22;10495;50.922;4.760;2023-05-07T05:21:46;16.70;89.90
20672;DHT22;10495;50.922;4.760;2023-05-07T05:24:12;16.80;90.00
20672;DHT22;10495;50.922;4.760;2023-05-07T05:26:37;16.70;90.10
20672;DHT22;10495;50.922;4.760;2023-05-07T05:29:03;16.60;90.40
20672;DHT22;10495;50.922;4.760;2023-05-07T05:31:28;16.70;90.10
20672;DHT22;10495;50.922;4.760;2023-05-07T05:33:54;16.70;90.30
20672;DHT22;10495;50.922;4.760;2023-05-07T05:36:20;16.80;90.30
20672;DHT22;10495;50.922;4.760;2023-05-07T05:38:45;16.80;90.10
20672;DHT22;10495;50.922;4.760;2023-05-07T05:41:11;17.00;90.00
20672;DHT22;10495;50.922;4.760;2023-05-07T05:43:37;17.00;90.00
20672;DHT22;10495;50.922;4.760;2023-05-07T05:46:02;17.00;89.90
20672;DHT22;10495;50.922;4.760;2023-05-07T05:48:30;17.10;89.70
20672;DHT22;10495;50.922;4.760;2023-05-07T05:50:55;17.10;89.40
20672;DHT22;10495;50.922;4.760;2023-05-07T05:53:21;17.10;89.70
20672;DHT22;10495;50.922;4.760;2023-05-07T05:55:47;17.20;89.40
20672;DHT22;10495;50.922;4.760;2023-05-07T05:58:12;17.20;89.10
20672;DHT22;10495;50.922;4.760;2023-05-07T06:00:38;17.10;89.50
20672;DHT22;10495;50.922;4.760;2023-05-07T06:03:03;17.30;89.10
20672;DHT22;10495;50.922;4.760;2023-05-07T06:05:29;17.20;89.70
20672;DHT22;10495;50.922;4.760;2023-05-07T06:07:55;17.30;90.00
20672;DHT22;10495;50.922;4.760;2023-05-07T06:10:21;17.30;90.00
20672;DHT22;10495;50.922;4.760;2023-05-07T06:12:47;17.40;90.10
20672;DHT22;10495;50.922;4.760;2023-05-07T06:15:12;17.50;90.10
20672;DHT22;10495;50.922;4.760;2023-05-07T06:17:38;17.60;90.10
20672;DHT22;10495;50.922;4.760;2023-05-07T06:20:04;17.80;89.90
20672;DHT22;10495;50.922;4.760;2023-05-07T06:22:30;17.80;89.90
20672;DHT22;10495;50.922;4.760;2023-05-07T06:24:55;17.90;89.80
20672;DHT22;10495;50.922;4.760;2023-05-07T06:27:21;18.00;89.80
20672;DHT22;10495;50.922;4.760;2023-05-07T06:29:48;18.00;89.50
20672;DHT22;10495;50.922;4.760;2023-05-07T06:32:14;18.10;89.70
20672;DHT22;10495;50.922;4.760;2023-05-07T06:34:40;18.20;89.50
20672;DHT22;10495;50.922;4.760;2023-05-07T06:37:06;18.30;89.40
20672;DHT22;10495;50.922;4.760;2023-05-07T06:39:33;18.40;89.20
20672;DHT22;10495;50.922;4.760;2023-05-07T06:42:00;18.40;88.20
20672;DHT22;10495;50.922;4.760;2023-05-07T06:44:26;18.60;88.30
20672;DHT22;10495;50.922;4.760;2023-05-07T06:46:52;18.70;88.50
20672;DHT22;10495;50.922;4.760;2023-05-07T06:49:17;18.80;88.00
20672;DHT22;10495;50.922;4.760;2023-05-07T06:51:43;18.90;88.10
20672;DHT22;10495;50.922;4.760;2023-05-07T06:54:09;19.10;87.60
20672;DHT22;10495;50.922;4.760;2023-05-07T06:56:34;19.20;87.60
20672;DHT22;10495;50.922;4.760;2023-05-07T06:59:01;19.10;86.50
20672;DHT22;10495;50.922;4.760;2023-05-07T07:01:27;19.20;86.30
20672;DHT22;10495;50.922;4.760;2023-05-07T07:03:53;19.20;85.10
20672;DHT22;10495;50.922;4.760;2023-05-07T07:06:18;19.10;85.10
20672;DHT22;10495;50.922;4.760;2023-05-07T07:08:44;19.10;85.00
20672;DHT22;10495;50.922;4.760;2023-05-07T07:11:10;19.10;84.30
20672;DHT22;10495;50.922;4.760;2023-05-07T07:13:36;19.10;83.90
20672;DHT22;10495;50.922;4.760;2023-05-07T07:16:02;19.00;83.90
20672;DHT22;10495;50.922;4.760;2023-05-07T07:18:28;19.10;83.80
20672;DHT22;10495;50.922;4.760;2023-05-07T07:20:54;19.10;83.30
20672;DHT22;10495;50.922;4.760;2023-05-07T07:23:19;19.00;83.40
20672;DHT22;10495;50.922;4.760;2023-05-07T07:25:45;19.10;83.60
20672;DHT22;10495;50.922;4.760;2023-05-07T07:28:11;19.10;83.30
20672;DHT22;10495;50.922;4.760;2023-05-07T07:30:37;19.30;83.10
20672;DHT22;10495;50.922;4.760;2023-05-07T07:33:03;19.30;83.20
20672;DHT22;10495;50.922;4.760;2023-05-07T07:35:29;19.30;83.50
20672;DHT22;10495;50.922;4.760;2023-05-07T07:37:55;19.40;82.50
20672;DHT22;10495;50.922;4.760;2023-05-07T07:40:28;19.40;82.70
20672;DHT22;10495;50.922;4.760;2023-05-07T07:42:54;19.40;82.80
20672;DHT22;10495;50.922;4.760;2023-05-07T07:45:20;19.40;82.70
20672;DHT22;10495;50.922;4.760;2023-05-07T07:47:46;19.50;82.00
20672;DHT22;10495;50.922;4.760;2023-05-07T07:50:12;19.50;82.30
20672;DHT22;10495;50.922;4.760;2023-05-07T07:52:37;19.40;82.70
20672;DHT22;10495;50.922;4.760;2023-05-07T07:55:04;19.50;82.90
20672;DHT22;10495;50.922;4.760;2023-05-07T07:57:30;19.50;83.60
20672;DHT22;10495;50.922;4.760;2023-05-07T07:59:55;19.60;83.40
20672;DHT22;10495;50.922;4.760;2023-05-07T08:02:21;19.60;83.30
20672;DHT22;10495;50.922;4.760;2023-05-07T08:04:47;19.50;84.20
20672;DHT22;10495;50.922;4.760;2023-05-07T08:07:12;19.60;84.10
20672;DHT22;10495;50.922;4.760;2023-05-07T08:09:38;19.60;83.70
20672;DHT22;10495;50.922;4.760;2023-05-07T08:12:05;19.70;83.90
20672;DHT22;10495;50.922;4.760;2023-05-07T08:14:31;19.60;83.80
20672;DHT22;10495;50.922;4.760;2023-05-07T08:16:56;19.50;84.20
20672;DHT22;10495;50.922;4.760;2023-05-07T08:19:22;19.70;84.50
20672;DHT22;10495;50.922;4.760;2023-05-07T08:21:48;19.80;84.00
20672;DHT22;10495;50.922;4.760;2023-05-07T08:24:15;19.70;84.50
20672;DHT22;10495;50.922;4.760;2023-05-07T08:26:41;19.70;84.60
20672;DHT22;10495;50.922;4.760;2023-05-07T08:29:06;19.80;84.90
20672;DHT22;10495;50.922;4.760;2023-05-07T08:31:32;19.90;84.80
20672;DHT22;10495;50.922;4.760;2023-05-07T08:33:58;19.80;84.70
20672;DHT22;10495;50.922;4.760;2023-05-07T08:36:24;19.90;85.20
20672;DHT22;10495;50.922;4.760;2023-05-07T08:38:51;19.90;84.30
20672;DHT22;10495;50.922;4.760;2023-05-07T08:41:17;20.10;84.70
20672;DHT22;10495;50.922;4.760;2023-05-07T08:43:48;20.00;85.10
20672;DHT22;10495;50.922;4.760;2023-05-07T08:46:22;20.10;85.50
20672;DHT22;10495;50.922;4.760;2023-05-07T08:48:48;20.30;85.20
20672;DHT22;10495;50.922;4.760;2023-05-07T08:51:17;20.40;85.30
20672;DHT22;10495;50.922;4.760;2023-05-07T08:53:43;20.50;85.00
20672;DHT22;10495;50.922;4.760;2023-05-07T08:56:09;20.50;84.80
20672;DHT22;10495;50.922;4.760;2023-05-07T08:58:35;20.50;84.60
20672;DHT22;10495;50.922;4.760;2023-05-07T09:01:08;20.50;84.80
20672;DHT22;10495;50.922;4.760;2023-05-07T09:03:37;20.70;84.70
20672;DHT22;10495;50.922;4.760;2023-05-07T09:06:03;20.80;84.70
20672;DHT22;10495;50.922;4.760;2023-05-07T09:08:29;20.70;83.60
20672;DHT22;10495;50.922;4.760;2023-05-07T09:10:54;20.60;84.70
20672;DHT22;10495;50.922;4.760;2023-05-07T09:13:20;20.70;84.60
20672;DHT22;10495;50.922;4.760;2023-05-07T09:15:46;20.70;84.40
20672;DHT22;10495;50.922;4.760;2023-05-07T09:18:12;20.70;84.70
20672;DHT22;10495;50.922;4.760;2023-05-07T09:20:38;20.80;84.90
20672;DHT22;10495;50.922;4.760;2023-05-07T09:23:06;20.70;84.50
20672;DHT22;10495;50.922;4.760;2023-05-07T09:25:33;20.70;84.70
20672;DHT22;10495;50.922;4.760;2023-05-07T09:28:04;20.60;84.90
20672;DHT22;10495;50.922;4.760;2023-05-07T09:30:31;20.60;84.70
20672;DHT22;10495;50.922;4.760;2023-05-07T09:32:58;20.60;84.30
20672;DHT22;10495;50.922;4.760;2023-05-07T09:35:25;20.50;85.00
20672;DHT22;10495;50.922;4.760;2023-05-07T09:38:00;20.60;85.30
20672;DHT22;10495;50.922;4.760;2023-05-07T09:40:28;20.70;84.70
20672;DHT22;10495;50.922;4.760;2023-05-07T09:42:55;20.60;85.00
20672;DHT22;10495;50.922;4.760;2023-05-07T09:45:27;20.50;85.80
20672;DHT22;10495;50.922;4.760;2023-05-07T09:47:57;20.50;85.80
20672;DHT22;10495;50.922;4.760;2023-05-07T09:50:35;20.50;86.20
20672;DHT22;10495;50.922;4.760;2023-05-07T09:53:01;20.60;85.90
20672;DHT22;10495;50.922;4.760;2023-05-07T09:55:29;20.60;86.20
20672;DHT22;10495;50.922;4.760;2023-05-07T09:57:57;20.60;86.50
20672;DHT22;10495;50.922;4.760;2023-05-07T10:00:24;20.70;86.40
20672;DHT22;10495;50.922;4.760;2023-05-07T10:02:56;20.50;85.50
20672;DHT22;10495;50.922;4.760;2023-05-07T10:05:22;20.40;85.60
20672;DHT22;10495;50.922;4.760;2023-05-07T10:07:48;20.40;85.80
20672;DHT22;10495;50.922;4.760;2023-05-07T10:10:15;20.50;86.30
20672;DHT22;10495;50.922;4.760;2023-05-07T10:12:41;20.50;86.50
20672;DHT22;10495;50.922;4.760;2023-05-07T10:15:09;20.50;87.00
20672;DHT22;10495;50.922;4.760;2023-05-07T10:17:36;20.40;86.80
20672;DHT22;10495;50.922;4.760;2023-05-07T10:20:02;20.40;87.00
20672;DHT22;10495;50.922;4.760;2023-05-07T10:22:37;20.50;86.70
20672;DHT22;10495;50.922;4.760;2023-05-07T10:25:12;20.40;86.60
20672;DHT22;10495;50.922;4.760;2023-05-07T10:27:40;20.30;87.00
20672;DHT22;10495;50.922;4.760;2023-05-07T10:30:19;20.20;86.80
20672;DHT22;10495;50.922;4.760;2023-05-07T10:32:49;20.30;87.20
20672;DHT22;10495;50.922;4.760;2023-05-07T10:35:24;20.30;87.20
20672;DHT22;10495;50.922;4.760;2023-05-07T10:37:51;20.40;87.70
20672;DHT22;10495;50.922;4.760;2023-05-07T10:40:17;20.40;88.10
20672;DHT22;10495;50.922;4.760;2023-05-07T10:42:55;20.40;88.60
20672;DHT22;10495;50.922;4.760;2023-05-07T10:45:22;20.40;88.90
20672;DHT22;10495;50.922;4.760;2023-05-07T10:48:17;20.50;88.80
20672;DHT22;10495;50.922;4.760;2023-05-07T10:50:44;20.60;88.40
20672;DHT22;10495;50.922;4.760;2023-05-07T10:55:47;20.60;88.60
20672;DHT22;10495;50.922;4.760;2023-05-07T10:58:29;20.60;88.80
20672;DHT22;10495;50.922;4.760;2023-05-07T11:00:59;20.70;88.60
20672;DHT22;10495;50.922;4.760;2023-05-07T11:03:26;20.60;88.30
20672;DHT22;10495;50.922;4.760;2023-05-07T11:06:12;20.70;88.60
20672;DHT22;10495;50.922;4.760;2023-05-07T11:14:14;20.80;87.40
20672;DHT22;10495;50.922;4.760;2023-05-07T11:16:41;20.80;87.60
20672;DHT22;10495;50.922;4.760;2023-05-07T11:19:08;20.60;87.10
20672;DHT22;10495;50.922;4.760;2023-05-07T11:21:39;20.50;86.90
20672;DHT22;10495;50.922;4.760;2023-05-07T11:24:06;20.60;87.20
20672;DHT22;10495;50.922;4.760;2023-05-07T11:26:48;20.70;87.40
20672;DHT22;10495;50.922;4.760;2023-05-07T11:29:20;20.80;87.70
20672;DHT22;10495;50.922;4.760;2023-05-07T11:31:50;20.80;87.40
20672;DHT22;10495;50.922;4.760;2023-05-07T11:34:24;20.80;86.40
20672;DHT22;10495;50.922;4.760;2023-05-07T11:36:51;20.60;86.40
20672;DHT22;10495;50.922;4.760;2023-05-07T11:39:29;20.50;87.10
20672;DHT22;10495;50.922;4.760;2023-05-07T11:41:56;20.60;87.30
20672;DHT22;10495;50.922;4.760;2023-05-07T11:44:22;20.60;88.10
20672;DHT22;10495;50.922;4.760;2023-05-07T11:46:48;20.70;87.80
20672;DHT22;10495;50.922;4.760;2023-05-07T11:49:14;20.80;87.80
20672;DHT22;10495;50.922;4.760;2023-05-07T11:51:41;20.90;88.50
20672;DHT22;10495;50.922;4.760;2023-05-07T11:54:08;20.90;88.50
20672;DHT22;10495;50.922;4.760;2023-05-07T11:56:34;21.10;87.20
20672;DHT22;10495;50.922;4.760;2023-05-07T11:59:01;21.20;86.80
20672;DHT22;10495;50.922;4.760;2023-05-07T12:01:27;21.10;86.60
20672;DHT22;10495;50.922;4.760;2023-05-07T12:03:52;21.30;87.10
20672;DHT22;10495;50.922;4.760;2023-05-07T12:06:18;21.30;87.00
20672;DHT22;10495;50.922;4.760;2023-05-07T12:08:44;21.40;86.80
20672;DHT22;10495;50.922;4.760;2023-05-07T12:11:16;20.90;84.60
20672;DHT22;10495;50.922;4.760;2023-05-07T12:13:43;21.00;86.70
20672;DHT22;10495;50.922;4.760;2023-05-07T12:16:09;20.90;85.80
20672;DHT22;10495;50.922;4.760;2023-05-07T12:18:36;21.00;86.30
20672;DHT22;10495;50.922;4.760;2023-05-07T12:21:02;20.90;86.80
20672;DHT22;10495;50.922;4.760;2023-05-07T12:23:29;20.90;87.30
20672;DHT22;10495;50.922;4.760;2023-05-07T12:25:55;20.80;86.70
20672;DHT22;10495;50.922;4.760;2023-05-07T12:28:21;20.70;86.90
20672;DHT22;10495;50.922;4.760;2023-05-07T12:30:47;20.90;87.70
20672;DHT22;10495;50.922;4.760;2023-05-07T12:33:18;21.10;87.50
20672;DHT22;10495;50.922;4.760;2023-05-07T12:35:44;21.30;87.20
20672;DHT22;10495;50.922;4.760;2023-05-07T12:38:12;21.30;86.20
20672;DHT22;10495;50.922;4.760;2023-05-07T12:40:43;21.40;85.80
20672;DHT22;10495;50.922;4.760;2023-05-07T12:43:25;21.50;85.60
20672;DHT22;10495;50.922;4.760;2023-05-07T12:45:55;21.50;84.50
20672;DHT22;10495;50.922;4.760;2023-05-07T12:48:22;21.40;85.00
20672;DHT22;10495;50.922;4.760;2023-05-07T12:50:54;21.40;83.70
20672;DHT22;10495;50.922;4.760;2023-05-07T12:53:21;21.50;83.60
20672;DHT22;10495;50.922;4.760;2023-05-07T12:55:49;21.60;84.00
20672;DHT22;10495;50.922;4.760;2023-05-07T12:58:21;21.50;83.30
20672;DHT22;10495;50.922;4.760;2023-05-07T13:00:50;21.50;82.90
20672;DHT22;10495;50.922;4.760;2023-05-07T13:03:27;21.60;83.40
20672;DHT22;10495;50.922;4.760;2023-05-07T13:05:58;21.60;82.80
20672;DHT22;10495;50.922;4.760;2023-05-07T13:08:26;21.30;83.00
20672;DHT22;10495;50.922;4.760;2023-05-07T13:10:52;21.30;83.90
20672;DHT22;10495;50.922;4.760;2023-05-07T13:13:19;21.30;84.00
20672;DHT22;10495;50.922;4.760;2023-05-07T13:15:45;21.30;84.30
20672;DHT22;10495;50.922;4.760;2023-05-07T13:18:11;21.40;84.50
20672;DHT22;10495;50.922;4.760;2023-05-07T13:20:37;21.40;83.80
20672;DHT22;10495;50.922;4.760;2023-05-07T13:23:02;21.30;82.60
20672;DHT22;10495;50.922;4.760;2023-05-07T13:25:30;21.20;83.20
20672;DHT22;10495;50.922;4.760;2023-05-07T13:27:59;21.40;84.30
20672;DHT22;10495;50.922;4.760;2023-05-07T13:30:25;21.50;84.50
20672;DHT22;10495;50.922;4.760;2023-05-07T13:32:53;21.50;84.30
20672;DHT22;10495;50.922;4.760;2023-05-07T13:35:20;21.40;83.80
20672;DHT22;10495;50.922;4.760;2023-05-07T13:37:46;21.40;84.10
20672;DHT22;10495;50.922;4.760;2023-05-07T13:40:13;21.50;83.70
20672;DHT22;10495;50.922;4.760;2023-05-07T13:42:39;21.30;83.10
20672;DHT22;10495;50.922;4.760;2023-05-07T13:45:05;21.40;83.50
20672;DHT22;10495;50.922;4.760;2023-05-07T13:47:31;21.40;83.60
20672;DHT22;10495;50.922;4.760;2023-05-07T13:49:56;21.50;83.90
20672;DHT22;10495;50.922;4.760;2023-05-07T13:52:22;21.70;83.00
20672;DHT22;10495;50.922;4.760;2023-05-07T13:54:48;21.40;82.80
20672;DHT22;10495;50.922;4.760;2023-05-07T13:57:13;21.50;83.60
20672;DHT22;10495;50.922;4.760;2023-05-07T13:59:39;21.50;82.60
20672;DHT22;10495;50.922;4.760;2023-05-07T14:02:05;21.50;83.00
20672;DHT22;10495;50.922;4.760;2023-05-07T14:04:31;21.60;84.00
20672;DHT22;10495;50.922;4.760;2023-05-07T14:06:56;21.70;83.70
20672;DHT22;10495;50.922;4.760;2023-05-07T14:09:22;21.60;83.00
20672;DHT22;10495;50.922;4.760;2023-05-07T14:11:48;21.50;82.40
20672;DHT22;10495;50.922;4.760;2023-05-07T14:14:17;21.10;82.90
20672;DHT22;10495;50.922;4.760;2023-05-07T14:16:43;21.10;84.10
20672;DHT22;10495;50.922;4.760;2023-05-07T14:19:08;21.40;84.30
20672;DHT22;10495;50.922;4.760;2023-05-07T14:21:34;21.40;83.60
20672;DHT22;10495;50.922;4.760;2023-05-07T14:24:00;21.40;83.00
20672;DHT22;10495;50.922;4.760;2023-05-07T14:26:26;21.20;83.60
20672;DHT22;10495;50.922;4.760;2023-05-07T14:28:52;21.40;83.70
20672;DHT22;10495;50.922;4.760;2023-05-07T14:31:20;21.50;83.80
20672;DHT22;10495;50.922;4.760;2023-05-07T14:33:46;21.50;83.50
20672;DHT22;10495;50.922;4.760;2023-05-07T14:36:11;21.30;82.20
20672;DHT22;10495;50.922;4.760;2023-05-07T14:38:37;21.40;82.70
20672;DHT22;10495;50.922;4.760;2023-05-07T14:41:03;21.40;82.50
20672;DHT22;10495;50.922;4.760;2023-05-07T14:43:29;21.30;82.10
20672;DHT22;10495;50.922;4.760;2023-05-07T14:45:55;21.30;82.30
20672;DHT22;10495;50.922;4.760;2023-05-07T14:48:20;21.30;82.50
20672;DHT22;10495;50.922;4.760;2023-05-07T14:50:49;21.50;82.20
20672;DHT22;10495;50.922;4.760;2023-05-07T14:53:15;21.50;82.20
20672;DHT22;10495;50.922;4.760;2023-05-07T14:55:41;21.60;82.00
20672;DHT22;10495;50.922;4.760;2023-05-07T14:58:07;21.60;81.80
20672;DHT22;10495;50.922;4.760;2023-05-07T15:00:33;21.60;81.80
20672;DHT22;10495;50.922;4.760;2023-05-07T15:03:05;21.60;81.60
20672;DHT22;10495;50.922;4.760;2023-05-07T15:05:32;21.70;82.10
20672;DHT22;10495;50.922;4.760;2023-05-07T15:07:58;21.90;82.20
20672;DHT22;10495;50.922;4.760;2023-05-07T15:10:23;21.90;82.90
20672;DHT22;10495;50.922;4.760;2023-05-07T15:12:49;21.80;81.40
20672;DHT22;10495;50.922;4.760;2023-05-07T15:15:15;21.90;80.40
20672;DHT22;10495;50.922;4.760;2023-05-07T15:17:40;21.80;80.80
20672;DHT22;10495;50.922;4.760;2023-05-07T15:20:06;21.90;81.10
20672;DHT22;10495;50.922;4.760;2023-05-07T15:22:32;21.90;81.60
20672;DHT22;10495;50.922;4.760;2023-05-07T15:24:58;21.80;82.10
20672;DHT22;10495;50.922;4.760;2023-05-07T15:27:24;21.80;81.50
20672;DHT22;10495;50.922;4.760;2023-05-07T15:29:50;21.70;81.50
20672;DHT22;10495;50.922;4.760;2023-05-07T15:32:16;21.70;81.60
20672;DHT22;10495;50.922;4.760;2023-05-07T15:34:41;21.70;81.70
20672;DHT22;10495;50.922;4.760;2023-05-07T15:37:07;21.70;81.10